createdAt,value
2022-11-27T00:01:19.904Z,47.15
2022-11-27T00:03:46.751Z,45.67
2022-11-27T00:06:16.098Z,46.40
2022-11-27T00:08:44.461Z,51.38
2022-11-27T00:11:17.232Z,54.67
2022-11-27T00:13:45.671Z,55.55
2022-11-27T00:16:13.368Z,56.17
2022-11-27T00:18:40.689Z,63.80
2022-11-27T00:21:13.289Z,57.22
2022-11-27T00:23:40.129Z,62.40
2022-11-27T00:26:07.651Z,51.15
2022-11-27T00:28:34.893Z,44.08
2022-11-27T00:31:03.988Z,48.85
2022-11-27T00:33:31.305Z,53.72
2022-11-27T00:36:02.656Z,47.63
2022-11-27T00:38:29.386Z,46.83
2022-11-27T00:41:00.339Z,45.53
2022-11-27T00:43:27.055Z,44.45
2022-11-27T00:45:53.684Z,42.67
2022-11-27T00:48:20.604Z,39.92
2022-11-27T00:50:47.244Z,46.83
2022-11-27T00:53:13.904Z,40.72
2022-11-27T00:55:40.548Z,56.40
2022-11-27T00:58:07.229Z,44.05
2022-11-27T01:00:33.845Z,40.60
2022-11-27T01:03:00.526Z,44.70
2022-11-27T01:05:27.211Z,38.90
2022-11-27T01:07:53.863Z,38.72
2022-11-27T01:10:20.529Z,46.00
2022-11-27T01:12:50.099Z,41.58
2022-11-27T01:15:16.834Z,39.10
2022-11-27T01:17:46.735Z,33.30
2022-11-27T01:20:13.483Z,35.90
2022-11-27T01:22:40.141Z,38.45
2022-11-27T01:25:07.842Z,38.25
2022-11-27T01:27:34.463Z,38.50
2022-11-27T01:30:01.127Z,39.47
2022-11-27T01:32:27.729Z,52.30
2022-11-27T01:34:54.644Z,42.60
2022-11-27T01:37:21.304Z,62.45
2022-11-27T01:39:47.930Z,88.60
2022-11-27T01:42:14.582Z,48.90
2022-11-27T01:44:49.316Z,45.35
2022-11-27T01:47:27.904Z,44.80
2022-11-27T01:50:00.592Z,45.65
2022-11-27T01:52:31.900Z,36.58
2022-11-27T01:55:04.419Z,40.05
2022-11-27T01:57:36.216Z,78.47
2022-11-27T02:00:05.795Z,47.15
2022-11-27T02:02:32.480Z,60.22
2022-11-27T02:04:59.279Z,53.95
2022-11-27T02:07:26.346Z,95.03
2022-11-27T02:09:53.201Z,66.88
2022-11-27T02:12:35.225Z,83.63
2022-11-27T02:15:23.503Z,86.88
2022-11-27T02:18:00.229Z,97.68
2022-11-27T02:21:01.574Z,65.20
2022-11-27T02:23:43.598Z,36.72
2022-11-27T02:26:20.863Z,46.67
2022-11-27T02:29:04.119Z,72.85
2022-11-27T02:31:31.836Z,88.60
2022-11-27T02:34:08.683Z,66.38
2022-11-27T02:36:37.881Z,61.33
2022-11-27T02:39:11.957Z,83.97
2022-11-27T02:41:45.221Z,51.35
2022-11-27T02:44:13.107Z,38.78
2022-11-27T02:46:41.972Z,26.58
2022-11-27T02:49:16.743Z,25.38
2022-11-27T02:51:53.673Z,26.85
2022-11-27T02:54:26.052Z,26.52
2022-11-27T02:56:55.259Z,26.08
2022-11-27T02:59:24.649Z,25.85
2022-11-27T03:01:59.446Z,24.42
2022-11-27T03:04:34.434Z,25.88
2022-11-27T03:07:07.118Z,33.20
2022-11-27T03:09:39.638Z,27.58
2022-11-27T03:12:09.011Z,31.83
2022-11-27T03:14:38.740Z,26.50
2022-11-27T03:17:20.786Z,24.35
2022-11-27T03:20:22.609Z,25.85
2022-11-27T03:22:49.313Z,25.27
2022-11-27T03:25:16.584Z,29.90
2022-11-27T03:27:54.169Z,27.67
2022-11-27T03:30:20.897Z,28.95
2022-11-27T03:32:47.825Z,30.15
2022-11-27T03:35:18.876Z,36.28
2022-11-27T03:37:46.179Z,27.92
2022-11-27T03:40:13.707Z,30.80
2022-11-27T03:43:03.737Z,33.75
2022-11-27T03:45:45.754Z,30.58
2022-11-27T03:48:28.658Z,27.67
2022-11-27T03:51:30.464Z,30.52
2022-11-27T03:54:12.236Z,30.20
2022-11-27T03:56:55.041Z,25.77
2022-11-27T03:59:27.657Z,32.90
2022-11-27T04:01:54.409Z,38.85
2022-11-27T04:04:21.186Z,29.48
2022-11-27T04:06:47.932Z,29.30
2022-11-27T04:09:14.593Z,37.58
2022-11-27T04:11:41.234Z,32.08
2022-11-27T04:14:07.898Z,39.15
2022-11-27T04:16:34.630Z,36.25
2022-11-27T04:19:01.269Z,32.55
2022-11-27T04:21:27.939Z,36.08
2022-11-27T04:23:54.603Z,36.50
2022-11-27T04:26:23.516Z,32.78
2022-11-27T04:28:50.198Z,38.95
2022-11-27T04:31:17.454Z,32.50
2022-11-27T04:33:44.206Z,38.05
2022-11-27T04:36:10.849Z,35.13
2022-11-27T04:38:37.506Z,37.13
2022-11-27T04:41:04.223Z,35.83
2022-11-27T04:43:30.803Z,37.78
2022-11-27T04:45:57.465Z,38.25
2022-11-27T04:48:24.074Z,39.83
2022-11-27T04:50:50.725Z,41.80
2022-11-27T04:53:17.368Z,40.75
2022-11-27T04:55:44.039Z,40.22
2022-11-27T04:58:10.705Z,35.78
2022-11-27T05:00:37.415Z,42.50
2022-11-27T05:03:04.217Z,41.03
2022-11-27T05:05:30.927Z,39.38
2022-11-27T05:07:57.663Z,43.53
2022-11-27T05:10:24.375Z,46.33
2022-11-27T05:12:51.242Z,38.30
2022-11-27T05:15:17.886Z,40.10
2022-11-27T05:17:44.631Z,44.40
2022-11-27T05:20:14.596Z,41.58
2022-11-27T05:22:41.255Z,48.90
2022-11-27T05:25:08.284Z,44.83
2022-11-27T05:27:35.366Z,43.90
2022-11-27T05:30:01.997Z,48.85
2022-11-27T05:32:28.632Z,37.55
2022-11-27T05:34:55.269Z,38.97
2022-11-27T05:37:21.969Z,38.33
2022-11-27T05:39:48.614Z,39.35
2022-11-27T05:42:15.259Z,39.63
2022-11-27T05:44:42.106Z,44.97
2022-11-27T05:47:08.995Z,42.80
2022-11-27T05:49:35.772Z,47.20
2022-11-27T05:52:02.622Z,37.33
2022-11-27T05:54:29.275Z,45.05
2022-11-27T05:56:55.893Z,44.55
2022-11-27T05:59:22.654Z,45.65
2022-11-27T06:01:49.652Z,48.70
2022-11-27T06:04:16.697Z,44.35
2022-11-27T06:06:43.417Z,46.58
2022-11-27T06:09:13.238Z,43.92
2022-11-27T06:11:41.443Z,48.80
2022-11-27T06:14:10.180Z,58.97
2022-11-27T06:16:37.196Z,52.25
2022-11-27T06:19:04.043Z,49.50
2022-11-27T06:21:30.708Z,54.03
2022-11-27T06:23:57.708Z,53.92
2022-11-27T06:26:27.752Z,58.72
2022-11-27T06:28:56.172Z,54.25
2022-11-27T06:31:25.759Z,50.13
2022-11-27T06:33:54.171Z,53.05
2022-11-27T06:36:24.335Z,54.65
2022-11-27T06:38:51.269Z,52.63
2022-11-27T06:41:20.273Z,57.92
2022-11-27T06:43:47.633Z,60.30
2022-11-27T06:46:16.846Z,59.85
2022-11-27T06:48:45.004Z,52.75
2022-11-27T06:51:14.239Z,61.15
2022-11-27T06:53:40.973Z,57.08
2022-11-27T06:56:10.942Z,67.22
2022-11-27T06:58:37.855Z,59.20
2022-11-27T07:01:08.465Z,51.38
2022-11-27T07:03:35.378Z,52.38
2022-11-27T07:06:04.678Z,58.05
2022-11-27T07:08:32.498Z,53.42
2022-11-27T07:11:05.546Z,66.72
2022-11-27T07:13:32.714Z,51.33
2022-11-27T07:16:01.984Z,59.40
2022-11-27T07:18:30.676Z,63.58
2022-11-27T07:20:57.564Z,64.97
2022-11-27T07:23:24.178Z,58.58
2022-11-27T07:25:50.810Z,54.90
2022-11-27T07:28:18.994Z,65.35
2022-11-27T07:30:46.119Z,71.13
2022-11-27T07:33:12.841Z,68.00
2022-11-27T07:35:39.496Z,62.63
2022-11-27T07:38:06.133Z,60.08
2022-11-27T07:40:32.727Z,66.53
2022-11-27T07:42:59.599Z,67.70
2022-11-27T07:45:26.430Z,69.20
2022-11-27T07:47:53.112Z,69.32
2022-11-27T07:50:19.836Z,69.85
2022-11-27T07:52:46.567Z,67.63
2022-11-27T07:55:13.318Z,75.95
2022-11-27T07:57:40.095Z,76.43
2022-11-27T08:00:07.415Z,77.70
2022-11-27T08:02:34.015Z,83.95
2022-11-27T08:05:00.758Z,88.90
2022-11-27T08:07:29.898Z,86.53
2022-11-27T08:09:58.417Z,108.05
2022-11-27T08:12:25.517Z,103.38
2022-11-27T08:14:52.440Z,119.30
2022-11-27T08:17:19.392Z,106.70
2022-11-27T08:19:46.368Z,101.28
2022-11-27T08:22:14.137Z,103.90
2022-11-27T08:24:42.578Z,85.28
2022-11-27T08:27:10.546Z,84.30
2022-11-27T08:29:38.460Z,100.80
2022-11-27T08:32:05.872Z,105.88
2022-11-27T08:34:33.123Z,100.30
2022-11-27T08:36:59.795Z,86.45
2022-11-27T08:39:27.122Z,93.70
2022-11-27T08:41:54.438Z,96.13
2022-11-27T08:44:21.303Z,89.63
2022-11-27T08:46:47.970Z,75.47
2022-11-27T08:49:14.642Z,74.10
2022-11-27T08:51:43.798Z,69.32
2022-11-27T08:54:10.484Z,77.93
2022-11-27T08:56:37.124Z,73.38
2022-11-27T08:59:03.861Z,76.80
2022-11-27T09:01:32.472Z,77.85
2022-11-27T09:03:59.978Z,76.47
2022-11-27T09:06:30.255Z,88.95
2022-11-27T09:08:59.920Z,95.00
2022-11-27T09:11:28.562Z,82.95
2022-11-27T09:13:55.688Z,70.05
2022-11-27T09:16:23.027Z,66.75
2022-11-27T09:18:51.651Z,58.55
2022-11-27T09:21:24.138Z,57.33
2022-11-27T09:23:55.621Z,61.00
2022-11-27T09:26:25.524Z,71.60
2022-11-27T09:28:53.733Z,55.47
2022-11-27T09:31:21.516Z,57.47
2022-11-27T09:33:48.817Z,55.50
2022-11-27T09:36:19.637Z,54.08
2022-11-27T09:38:46.341Z,57.67
2022-11-27T09:41:40.542Z,58.88
2022-11-27T09:44:31.286Z,46.10
2022-11-27T09:47:04.833Z,50.72
2022-11-27T09:49:39.730Z,40.83
2022-11-27T09:52:31.111Z,41.58
2022-11-27T09:55:02.492Z,37.63
2022-11-27T09:57:35.416Z,42.08
2022-11-27T10:00:19.193Z,41.42
2022-11-27T10:02:46.582Z,43.40
2022-11-27T10:05:26.611Z,42.35
2022-11-27T10:08:17.770Z,45.72
2022-11-27T10:10:52.817Z,43.40
2022-11-27T10:13:29.830Z,40.75
2022-11-27T10:16:19.988Z,47.35
2022-11-27T10:18:54.170Z,37.80
2022-11-27T10:21:27.508Z,45.85
2022-11-27T10:24:04.764Z,46.00
2022-11-27T10:26:40.794Z,45.85
2022-11-27T10:29:29.964Z,39.58
2022-11-27T10:32:01.809Z,44.38
2022-11-27T10:34:39.974Z,42.25
2022-11-27T10:37:25.586Z,42.20
2022-11-27T10:40:01.435Z,36.30
2022-11-27T10:42:36.505Z,40.85
2022-11-27T10:45:06.824Z,41.47
2022-11-27T10:47:34.329Z,37.85
2022-11-27T10:50:01.112Z,37.47
2022-11-27T10:52:27.803Z,45.25
2022-11-27T10:54:59.319Z,39.40
2022-11-27T10:57:47.593Z,48.15
2022-11-27T11:00:23.972Z,45.92
2022-11-27T11:05:50.960Z,48.83
2022-11-27T11:08:17.984Z,48.45
2022-11-27T11:10:53.115Z,48.53
2022-11-27T11:13:23.743Z,48.20
2022-11-27T11:15:53.150Z,48.20
2022-11-27T11:18:24.257Z,51.65
2022-11-27T11:20:54.660Z,46.70
2022-11-27T11:23:26.140Z,53.13
2022-11-27T11:25:57.204Z,48.17
2022-11-27T11:28:24.839Z,57.50
2022-11-27T11:30:56.163Z,55.65
2022-11-27T11:33:23.067Z,49.60
2022-11-27T11:35:55.720Z,53.25
2022-11-27T11:38:30.177Z,47.47
2022-11-27T11:41:03.282Z,54.17
2022-11-27T11:43:34.317Z,54.95
2022-11-27T11:46:18.728Z,51.05
2022-11-27T11:49:02.470Z,49.95
2022-11-27T11:51:51.568Z,48.33
2022-11-27T11:54:34.402Z,48.30
2022-11-27T11:57:05.710Z,47.17
2022-11-27T11:59:53.707Z,43.28
2022-11-27T12:02:44.282Z,45.83
2022-11-27T12:05:19.232Z,55.72
2022-11-27T12:08:02.273Z,46.05
2022-11-27T12:10:49.059Z,49.78
2022-11-27T12:13:31.646Z,47.45
2022-11-27T12:16:19.194Z,42.42
2022-11-27T12:18:55.971Z,44.17
2022-11-27T12:21:44.341Z,46.38
2022-11-27T12:24:36.348Z,39.10
2022-11-27T12:27:21.355Z,40.17
2022-11-27T12:30:10.494Z,43.17
2022-11-27T12:33:08.145Z,42.20
2022-11-27T12:35:50.023Z,38.33
2022-11-27T12:38:40.227Z,34.28
2022-11-27T12:41:07.960Z,39.42
2022-11-27T12:43:40.764Z,40.45
2022-11-27T12:46:20.027Z,39.30
2022-11-27T12:48:53.522Z,37.03
2022-11-27T12:51:27.828Z,35.72
2022-11-27T12:54:01.714Z,39.22
2022-11-27T12:56:38.707Z,41.13
2022-11-27T12:59:27.287Z,31.58
2022-11-27T13:02:07.543Z,36.47
2022-11-27T13:04:45.124Z,36.33
2022-11-27T13:07:20.519Z,33.88
2022-11-27T13:10:13.635Z,31.57
2022-11-27T13:13:06.051Z,40.85
2022-11-27T13:15:45.107Z,30.58
2022-11-27T13:18:20.210Z,40.53
2022-11-27T13:20:52.376Z,37.08
2022-11-27T13:23:22.912Z,38.80
2022-11-27T13:25:55.407Z,36.75
2022-11-27T13:28:37.331Z,32.63
2022-11-27T13:31:05.591Z,31.38
2022-11-27T13:33:38.969Z,41.35
2022-11-27T13:36:09.010Z,32.75
2022-11-27T13:38:41.886Z,29.98
2022-11-27T13:41:08.752Z,35.80
2022-11-27T13:43:45.311Z,31.40
2022-11-27T13:46:22.089Z,36.85
2022-11-27T13:48:53.832Z,29.13
2022-11-27T13:51:37.687Z,24.90
2022-11-27T13:54:09.454Z,24.77
2022-11-27T13:56:36.287Z,23.27
2022-11-27T13:59:15.049Z,25.40
2022-11-27T14:01:58.668Z,27.65
2022-11-27T14:04:26.894Z,26.58
2022-11-27T14:07:00.629Z,26.75
2022-11-27T14:09:48.407Z,22.80
2022-11-27T14:12:24.233Z,27.65
2022-11-27T14:15:20.452Z,24.63
2022-11-27T14:17:50.599Z,26.95
2022-11-27T14:20:17.408Z,23.85
2022-11-27T14:23:10.606Z,26.42
2022-11-27T14:25:37.203Z,23.20
2022-11-27T14:28:21.736Z,27.60
2022-11-27T14:30:51.950Z,22.20
2022-11-27T14:33:27.089Z,21.83
2022-11-27T14:35:58.963Z,26.77
2022-11-27T14:38:27.652Z,29.00
2022-11-27T14:41:07.298Z,23.52
2022-11-27T14:43:33.991Z,24.48
2022-11-27T14:46:02.930Z,21.73
2022-11-27T14:48:41.541Z,21.90
2022-11-27T14:51:14.160Z,30.13
2022-11-27T14:53:41.574Z,28.77
2022-11-27T14:56:08.722Z,27.20
2022-11-27T14:58:35.600Z,25.77
2022-11-27T15:01:06.217Z,24.73
2022-11-27T15:03:33.575Z,26.30
2022-11-27T15:06:03.202Z,28.48
2022-11-27T15:08:35.462Z,25.33
2022-11-27T15:11:04.724Z,23.45
2022-11-27T15:13:34.499Z,29.98
2022-11-27T15:16:06.067Z,33.85
2022-11-27T15:18:37.256Z,33.20
2022-11-27T15:21:11.849Z,31.95
2022-11-27T15:23:44.947Z,35.63
2022-11-27T15:26:16.961Z,22.77
2022-11-27T15:28:57.125Z,22.63
2022-11-27T15:31:33.194Z,24.75
2022-11-27T15:34:06.360Z,21.40
2022-11-27T15:36:37.960Z,25.50
2022-11-27T15:39:17.649Z,27.20
2022-11-27T15:41:54.878Z,26.85
2022-11-27T15:44:23.257Z,25.67
2022-11-27T15:46:50.827Z,26.83
2022-11-27T15:49:17.512Z,25.48
2022-11-27T15:51:44.300Z,24.65
2022-11-27T15:54:11.004Z,31.02
2022-11-27T15:56:37.797Z,21.95
2022-11-27T15:59:04.597Z,21.33
2022-11-27T16:01:31.310Z,23.85
2022-11-27T16:03:58.511Z,19.80
2022-11-27T16:06:26.287Z,27.55
2022-11-27T16:08:56.071Z,32.20
2022-11-27T16:11:24.244Z,28.77
2022-11-27T16:13:51.443Z,35.97
2022-11-27T16:16:18.824Z,28.85
2022-11-27T16:18:45.683Z,31.73
2022-11-27T16:21:14.481Z,32.15
2022-11-27T16:23:41.271Z,32.58
2022-11-27T16:26:11.257Z,33.13
2022-11-27T16:28:38.061Z,32.58
2022-11-27T16:31:09.578Z,34.35
2022-11-27T16:33:36.917Z,40.03
2022-11-27T16:36:09.537Z,39.88
2022-11-27T16:38:36.924Z,36.80
2022-11-27T16:41:06.969Z,32.72
2022-11-27T16:43:36.046Z,38.50
2022-11-27T16:46:06.775Z,29.30
2022-11-27T16:48:36.212Z,34.60
2022-11-27T16:51:04.791Z,35.08
2022-11-27T16:53:31.504Z,34.47
2022-11-27T16:55:58.292Z,36.83
2022-11-27T16:58:24.931Z,28.50
2022-11-27T17:00:52.081Z,33.50
2022-11-27T17:03:18.733Z,30.20
2022-11-27T17:05:50.126Z,29.02
2022-11-27T17:08:18.026Z,35.22
2022-11-27T17:10:45.441Z,38.33
2022-11-27T17:13:12.083Z,34.33
2022-11-27T17:15:40.756Z,35.03
2022-11-27T17:18:07.661Z,38.03
2022-11-27T17:20:34.318Z,33.58
2022-11-27T17:23:00.977Z,37.33
2022-11-27T17:25:30.904Z,32.88
2022-11-27T17:27:57.807Z,34.03
2022-11-27T17:30:24.470Z,36.67
2022-11-27T17:32:51.468Z,33.85
2022-11-27T17:35:18.078Z,32.05
2022-11-27T17:37:45.452Z,34.92
2022-11-27T17:40:13.042Z,34.40
2022-11-27T17:42:39.734Z,31.08
2022-11-27T17:45:07.354Z,42.95
2022-11-27T17:47:34.204Z,34.63
2022-11-27T17:50:00.910Z,39.05
2022-11-27T17:52:27.698Z,39.08
2022-11-27T17:54:54.429Z,31.00
2022-11-27T17:57:21.303Z,34.42
2022-11-27T17:59:49.020Z,33.33
2022-11-27T18:02:16.108Z,39.30
2022-11-27T18:04:42.756Z,31.25
2022-11-27T18:07:09.430Z,31.60
2022-11-27T18:09:37.185Z,30.77
2022-11-27T18:12:06.343Z,34.60
2022-11-27T18:14:33.312Z,33.75
2022-11-27T18:17:04.623Z,34.10
2022-11-27T18:19:31.949Z,33.65
2022-11-27T18:22:00.157Z,34.67
2022-11-27T18:24:27.311Z,39.97
2022-11-27T18:27:10.099Z,31.45
2022-11-27T18:29:38.965Z,32.25
2022-11-27T18:32:06.860Z,27.75
2022-11-27T18:34:33.929Z,33.42
2022-11-27T18:37:00.998Z,27.40
2022-11-27T18:39:27.842Z,34.80
2022-11-27T18:41:55.015Z,33.88
2022-11-27T18:44:21.609Z,38.50
2022-11-27T18:46:48.351Z,35.60
2022-11-27T18:49:14.990Z,32.85
2022-11-27T18:51:45.246Z,36.40
2022-11-27T18:54:11.916Z,30.60
2022-11-27T18:56:38.557Z,40.03
2022-11-27T18:59:06.477Z,36.33
2022-11-27T19:01:41.366Z,35.63
2022-11-27T19:04:09.165Z,37.17
2022-11-27T19:06:36.984Z,36.08
2022-11-27T19:09:04.552Z,36.28
2022-11-27T19:11:32.763Z,34.75
2022-11-27T19:13:59.760Z,34.60
2022-11-27T19:16:31.536Z,33.90
2022-11-27T19:18:59.825Z,32.53
2022-11-27T19:21:29.147Z,31.58
2022-11-27T19:23:58.129Z,42.92
2022-11-27T19:26:27.501Z,33.47
2022-11-27T19:28:56.818Z,35.22
2022-11-27T19:31:24.525Z,30.77
2022-11-27T19:33:54.617Z,38.38
2022-11-27T19:36:22.968Z,39.90
2022-11-27T19:38:55.681Z,35.85
2022-11-27T19:41:23.286Z,36.75
2022-11-27T19:43:49.949Z,33.65
2022-11-27T19:46:21.145Z,32.92
2022-11-27T19:48:48.670Z,46.78
2022-11-27T19:51:15.666Z,40.38
2022-11-27T19:53:42.737Z,39.33
2022-11-27T19:56:10.227Z,37.38
2022-11-27T19:58:37.100Z,31.23
2022-11-27T20:01:07.271Z,35.70
2022-11-27T20:03:34.013Z,39.80
2022-11-27T20:06:02.681Z,40.38
2022-11-27T20:08:29.292Z,37.80
2022-11-27T20:10:55.948Z,37.97
2022-11-27T20:13:22.664Z,35.40
2022-11-27T20:15:49.464Z,31.52
2022-11-27T20:18:16.230Z,41.60
2022-11-27T20:20:42.850Z,41.60
2022-11-27T20:23:09.550Z,41.90
2022-11-27T20:25:39.309Z,35.03
2022-11-27T20:28:06.011Z,35.78
2022-11-27T20:30:34.362Z,31.50
2022-11-27T20:33:07.224Z,40.88
2022-11-27T20:35:34.630Z,32.92
2022-11-27T20:38:01.303Z,37.30
2022-11-27T20:40:28.512Z,35.22
2022-11-27T20:42:55.214Z,34.55
2022-11-27T20:45:21.990Z,35.53
2022-11-27T20:47:48.774Z,31.73
2022-11-27T20:50:15.453Z,34.25
2022-11-27T20:52:42.095Z,39.90
2022-11-27T20:55:09.379Z,38.58
2022-11-27T20:57:36.026Z,34.22
2022-11-27T21:00:02.948Z,35.13
2022-11-27T21:02:29.797Z,33.80
2022-11-27T21:04:56.689Z,30.45
2022-11-27T21:07:23.377Z,33.53
2022-11-27T21:09:50.148Z,42.50
2022-11-27T21:12:16.793Z,30.92
2022-11-27T21:14:52.947Z,30.42
2022-11-27T21:17:26.674Z,27.55
2022-11-27T21:20:10.123Z,31.17
2022-11-27T21:22:51.589Z,25.15
2022-11-27T21:25:22.653Z,27.25
2022-11-27T21:27:58.017Z,32.92
2022-11-27T21:30:25.283Z,22.67
2022-11-27T21:32:51.942Z,20.45
2022-11-27T21:35:18.609Z,18.08
2022-11-27T21:37:45.310Z,23.20
2022-11-27T21:40:12.670Z,26.63
2022-11-27T21:42:44.389Z,36.90
2022-11-27T21:45:11.476Z,24.00
2022-11-27T21:47:38.203Z,20.75
2022-11-27T21:50:05.899Z,26.55
2022-11-27T21:52:32.783Z,21.30
2022-11-27T21:54:59.422Z,21.05
2022-11-27T21:57:26.133Z,16.75
2022-11-27T21:59:52.766Z,21.95
2022-11-27T22:02:19.429Z,24.55
2022-11-27T22:04:47.146Z,19.85
2022-11-27T22:07:14.476Z,23.58
2022-11-27T22:09:41.150Z,24.48
2022-11-27T22:12:07.790Z,26.38
2022-11-27T22:14:34.443Z,30.48
2022-11-27T22:17:01.125Z,25.55
2022-11-27T22:19:27.790Z,22.63
2022-11-27T22:21:54.437Z,18.95
2022-11-27T22:24:21.075Z,19.08
2022-11-27T22:26:48.125Z,17.73
2022-11-27T22:29:14.865Z,18.52
2022-11-27T22:31:41.494Z,19.65
2022-11-27T22:34:08.116Z,23.70
2022-11-27T22:36:35.140Z,24.90
2022-11-27T22:39:05.383Z,26.38
2022-11-27T22:41:36.373Z,26.48
2022-11-27T22:44:08.059Z,24.55
2022-11-27T22:46:36.193Z,23.90
2022-11-27T22:49:06.359Z,20.30
2022-11-27T22:51:35.722Z,22.75
2022-11-27T22:54:03.982Z,17.42
2022-11-27T22:56:33.524Z,17.73
2022-11-27T22:59:30.474Z,18.77
2022-11-27T23:01:48.721Z,17.95
2022-11-27T23:04:15.738Z,21.83
2022-11-27T23:06:42.517Z,21.40
2022-11-27T23:09:09.599Z,16.13
2022-11-27T23:11:36.222Z,18.00
2022-11-27T23:14:03.411Z,21.77
2022-11-27T23:16:30.102Z,16.80
2022-11-27T23:18:57.366Z,33.95
2022-11-27T23:21:24.575Z,36.05
2022-11-27T23:23:51.785Z,55.80
2022-11-27T23:26:20.908Z,48.67
2022-11-27T23:28:50.462Z,51.70
2022-11-27T23:31:36.470Z,39.63
2022-11-27T23:34:07.778Z,38.17
2022-11-27T23:36:34.770Z,36.17
2022-11-27T23:39:04.045Z,31.75
2022-11-27T23:41:31.085Z,30.13
2022-11-27T23:43:58.142Z,42.95
2022-11-27T23:46:27.985Z,30.52
2022-11-27T23:48:56.235Z,35.53
2022-11-27T23:51:24.993Z,33.80
2022-11-27T23:53:52.636Z,28.23
2022-11-27T23:56:23.326Z,23.27
2022-11-27T23:58:50.024Z,21.17
